Ojus, Florida
Current Conditions -  °F | °C
As of 8:53 PM on Saturday 25 Oct 2014 (Local Time) from KHWO Reporting Station
Clear Clear  
Wind Chill: 74°   Ceiling: Unl
Heat Index: 74°   Visibility: 10mi
Dew Point: 62°   Wind: 5mph
Humidity: 66%   Direction: 40°NE
Pressure: 29.95"   Gusts: NA
Location:  25.95°N, 80.15°W
Report Text: KHWO 260053Z AUTO 04004KT 10SM CLR 23/17 A2995 RMK AO2 SLP141 T02330167
Loading
Personal Weather Stations






























Interactive Weather Map
Tropical Storm Tracking
New forecast layout! Learn more

10-Day Weather Forecast

Advertisements
Track Severe Weather on mobile